sensor_id;sensor_type;location;lat;lon;timestamp;pressure;altitude;pressure_sealevel;temperature;humidity
43071;BME280;36278;47.952;21.714;2023-05-22T00:01:05;100297.94;;;16.75;61.95
43071;BME280;36278;47.952;21.714;2023-05-22T00:03:31;100295.44;;;16.73;63.20
43071;BME280;36278;47.952;21.714;2023-05-22T00:05:57;100296.84;;;16.68;62.65
43071;BME280;36278;47.952;21.714;2023-05-22T00:08:24;100301.53;;;16.66;62.28
43071;BME280;36278;47.952;21.714;2023-05-22T00:10:50;100300.31;;;16.60;63.13
43071;BME280;36278;47.952;21.714;2023-05-22T00:13:15;100298.47;;;16.61;63.34
43071;BME280;36278;47.952;21.714;2023-05-22T00:15:40;100295.78;;;16.61;62.45
43071;BME280;36278;47.952;21.714;2023-05-22T00:18:06;100292.09;;;16.53;62.46
43071;BME280;36278;47.952;21.714;2023-05-22T00:20:32;100295.66;;;16.44;62.90
43071;BME280;36278;47.952;21.714;2023-05-22T00:23:03;100299.09;;;16.37;63.40
43071;BME280;36278;47.952;21.714;2023-05-22T00:25:28;100290.97;;;16.38;63.48
43071;BME280;36278;47.952;21.714;2023-05-22T00:27:54;100299.97;;;16.37;63.27
43071;BME280;36278;47.952;21.714;2023-05-22T00:30:19;100291.56;;;16.32;63.56
43071;BME280;36278;47.952;21.714;2023-05-22T00:32:45;100297.06;;;16.31;64.29
43071;BME280;36278;47.952;21.714;2023-05-22T00:35:10;100295.31;;;16.21;64.69
43071;BME280;36278;47.952;21.714;2023-05-22T00:37:36;100291.81;;;16.21;65.29
43071;BME280;36278;47.952;21.714;2023-05-22T00:40:01;100290.03;;;16.12;66.18
43071;BME280;36278;47.952;21.714;2023-05-22T00:42:28;100292.84;;;16.10;65.59
43071;BME280;36278;47.952;21.714;2023-05-22T00:44:53;100283.41;;;15.98;66.24
43071;BME280;36278;47.952;21.714;2023-05-22T00:47:18;100288.34;;;15.93;67.72
43071;BME280;36278;47.952;21.714;2023-05-22T00:49:45;100290.50;;;15.89;67.83
43071;BME280;36278;47.952;21.714;2023-05-22T00:52:11;100296.13;;;15.86;68.12
43071;BME280;36278;47.952;21.714;2023-05-22T00:54:38;100292.25;;;15.81;67.69
43071;BME280;36278;47.952;21.714;2023-05-22T00:57:04;100286.94;;;15.71;69.12
43071;BME280;36278;47.952;21.714;2023-05-22T00:59:30;100292.91;;;15.65;68.61
43071;BME280;36278;47.952;21.714;2023-05-22T01:01:57;100278.16;;;15.61;68.86
43071;BME280;36278;47.952;21.714;2023-05-22T01:04:23;100279.81;;;15.62;69.26
43071;BME280;36278;47.952;21.714;2023-05-22T01:06:49;100283.75;;;15.58;69.66
43071;BME280;36278;47.952;21.714;2023-05-22T01:09:15;100288.53;;;15.54;70.12
43071;BME280;36278;47.952;21.714;2023-05-22T01:11:53;100280.53;;;15.54;69.47
43071;BME280;36278;47.952;21.714;2023-05-22T01:17:38;100269.47;;;15.49;71.11
43071;BME280;36278;47.952;21.714;2023-05-22T01:31:39;100292.63;;;15.21;71.73
43071;BME280;36278;47.952;21.714;2023-05-22T01:34:09;100289.13;;;15.21;71.72
43071;BME280;36278;47.952;21.714;2023-05-22T01:36:36;100288.00;;;15.23;71.66
43071;BME280;36278;47.952;21.714;2023-05-22T01:39:02;100291.38;;;15.25;71.21
43071;BME280;36278;47.952;21.714;2023-05-22T01:41:32;100277.34;;;15.23;71.55
43071;BME280;36278;47.952;21.714;2023-05-22T01:43:58;100277.34;;;15.23;70.68
43071;BME280;36278;47.952;21.714;2023-05-22T01:46:26;100288.53;;;15.27;69.79
43071;BME280;36278;47.952;21.714;2023-05-22T01:48:51;100281.97;;;15.21;69.85
43071;BME280;36278;47.952;21.714;2023-05-22T01:51:23;100281.69;;;15.14;70.17
43071;BME280;36278;47.952;21.714;2023-05-22T01:56:52;100285.81;;;15.09;70.31
43071;BME280;36278;47.952;21.714;2023-05-22T02:01:57;100287.78;;;15.07;70.75
43071;BME280;36278;47.952;21.714;2023-05-22T02:04:25;100281.31;;;15.09;69.73
43071;BME280;36278;47.952;21.714;2023-05-22T02:06:52;100281.00;;;15.12;70.18
43071;BME280;36278;47.952;21.714;2023-05-22T02:09:20;100281.41;;;15.18;69.51
43071;BME280;36278;47.952;21.714;2023-05-22T02:11:47;100286.91;;;15.16;69.80
43071;BME280;36278;47.952;21.714;2023-05-22T02:14:13;100279.06;;;15.05;69.77
43071;BME280;36278;47.952;21.714;2023-05-22T02:16:40;100285.81;;;15.09;69.61
43071;BME280;36278;47.952;21.714;2023-05-22T02:19:06;100275.88;;;15.01;70.14
43071;BME280;36278;47.952;21.714;2023-05-22T02:21:35;100273.78;;;14.95;70.09
43071;BME280;36278;47.952;21.714;2023-05-22T02:24:01;100281.09;;;14.93;70.47
43071;BME280;36278;47.952;21.714;2023-05-22T02:26:27;100283.06;;;14.91;70.67
43071;BME280;36278;47.952;21.714;2023-05-22T02:28:53;100279.25;;;14.94;70.74
43071;BME280;36278;47.952;21.714;2023-05-22T02:31:18;100283.75;;;14.93;70.06
43071;BME280;36278;47.952;21.714;2023-05-22T02:33:44;100285.84;;;14.90;70.26
43071;BME280;36278;47.952;21.714;2023-05-22T02:36:09;100289.81;;;14.85;71.09
43071;BME280;36278;47.952;21.714;2023-05-22T02:38:37;100267.38;;;14.78;70.52
43071;BME280;36278;47.952;21.714;2023-05-22T02:41:03;100293.59;;;14.93;70.71
43071;BME280;36278;47.952;21.714;2023-05-22T02:43:29;100293.16;;;14.88;70.85
43071;BME280;36278;47.952;21.714;2023-05-22T02:45:54;100289.13;;;14.83;71.60
43071;BME280;36278;47.952;21.714;2023-05-22T02:48:20;100279.31;;;14.74;71.14
43071;BME280;36278;47.952;21.714;2023-05-22T02:50:45;100275.53;;;14.67;72.67
43071;BME280;36278;47.952;21.714;2023-05-22T02:53:13;100273.00;;;14.66;71.78
43071;BME280;36278;47.952;21.714;2023-05-22T02:55:40;100273.97;;;14.65;71.65
43071;BME280;36278;47.952;21.714;2023-05-22T02:58:06;100282.25;;;14.71;71.77
43071;BME280;36278;47.952;21.714;2023-05-22T03:00:39;100286.59;;;14.72;72.13
43071;BME280;36278;47.952;21.714;2023-05-22T03:03:04;100292.06;;;14.71;71.81
43071;BME280;36278;47.952;21.714;2023-05-22T03:05:34;100281.56;;;14.69;71.90
43071;BME280;36278;47.952;21.714;2023-05-22T03:07:59;100286.44;;;14.74;70.93
43071;BME280;36278;47.952;21.714;2023-05-22T03:10:24;100271.88;;;14.68;70.54
43071;BME280;36278;47.952;21.714;2023-05-22T03:12:50;100279.44;;;14.73;71.58
43071;BME280;36278;47.952;21.714;2023-05-22T03:15:19;100281.97;;;14.74;71.04
43071;BME280;36278;47.952;21.714;2023-05-22T03:17:44;100282.53;;;14.78;71.33
43071;BME280;36278;47.952;21.714;2023-05-22T03:20:10;100289.13;;;14.74;71.51
43071;BME280;36278;47.952;21.714;2023-05-22T03:22:43;100281.00;;;14.75;70.05
43071;BME280;36278;47.952;21.714;2023-05-22T03:25:09;100289.84;;;14.76;69.07
43071;BME280;36278;47.952;21.714;2023-05-22T03:27:36;100285.34;;;14.76;69.25
43071;BME280;36278;47.952;21.714;2023-05-22T03:30:02;100273.50;;;14.89;69.17
43071;BME280;36278;47.952;21.714;2023-05-22T03:32:28;100279.25;;;14.94;68.35
43071;BME280;36278;47.952;21.714;2023-05-22T03:34:53;100286.00;;;14.88;68.25
43071;BME280;36278;47.952;21.714;2023-05-22T03:37:19;100294.41;;;14.93;68.47
43071;BME280;36278;47.952;21.714;2023-05-22T03:39:44;100290.34;;;14.99;67.91
43071;BME280;36278;47.952;21.714;2023-05-22T03:42:10;100297.25;;;14.92;68.66
43071;BME280;36278;47.952;21.714;2023-05-22T03:44:37;100303.13;;;14.95;68.63
43071;BME280;36278;47.952;21.714;2023-05-22T03:47:03;100282.06;;;14.92;68.00
43071;BME280;36278;47.952;21.714;2023-05-22T03:49:28;100302.41;;;14.93;67.55
43071;BME280;36278;47.952;21.714;2023-05-22T03:51:54;100303.69;;;14.99;67.77
43071;BME280;36278;47.952;21.714;2023-05-22T03:54:19;100305.75;;;15.05;67.63
43071;BME280;36278;47.952;21.714;2023-05-22T03:56:45;100300.56;;;15.03;68.42
43071;BME280;36278;47.952;21.714;2023-05-22T03:59:10;100305.31;;;15.09;66.91
43071;BME280;36278;47.952;21.714;2023-05-22T04:01:36;100300.81;;;15.10;67.46
43071;BME280;36278;47.952;21.714;2023-05-22T04:04:04;100310.34;;;15.12;67.18
43071;BME280;36278;47.952;21.714;2023-05-22T04:06:30;100302.91;;;15.16;66.25
43071;BME280;36278;47.952;21.714;2023-05-22T04:08:57;100304.44;;;15.19;67.50
43071;BME280;36278;47.952;21.714;2023-05-22T04:11:23;100312.44;;;15.19;65.69
43071;BME280;36278;47.952;21.714;2023-05-22T04:13:49;100307.91;;;15.29;66.92
43071;BME280;36278;47.952;21.714;2023-05-22T04:16:17;100318.31;;;15.32;65.36
43071;BME280;36278;47.952;21.714;2023-05-22T04:18:43;100309.84;;;15.36;65.28
43071;BME280;36278;47.952;21.714;2023-05-22T04:21:08;100315.50;;;15.33;65.40
43071;BME280;36278;47.952;21.714;2023-05-22T04:23:34;100312.78;;;15.43;65.62
43071;BME280;36278;47.952;21.714;2023-05-22T04:26:00;100305.41;;;15.55;65.24
43071;BME280;36278;47.952;21.714;2023-05-22T04:28:27;100310.31;;;15.59;65.83
43071;BME280;36278;47.952;21.714;2023-05-22T04:30:55;100300.75;;;15.66;65.95
43071;BME280;36278;47.952;21.714;2023-05-22T04:33:22;100305.25;;;15.66;65.30
43071;BME280;36278;47.952;21.714;2023-05-22T04:35:49;100309.38;;;15.78;65.28
43071;BME280;36278;47.952;21.714;2023-05-22T04:38:15;100306.63;;;15.70;65.66
43071;BME280;36278;47.952;21.714;2023-05-22T04:40:42;100299.31;;;15.72;65.15
43071;BME280;36278;47.952;21.714;2023-05-22T04:43:09;100299.00;;;15.75;66.39
43071;BME280;36278;47.952;21.714;2023-05-22T04:45:36;100308.69;;;15.76;66.36
43071;BME280;36278;47.952;21.714;2023-05-22T04:48:02;100310.31;;;15.87;64.50
43071;BME280;36278;47.952;21.714;2023-05-22T04:50:28;100308.72;;;15.94;64.37
43071;BME280;36278;47.952;21.714;2023-05-22T04:52:57;100310.13;;;15.98;64.47
43071;BME280;36278;47.952;21.714;2023-05-22T04:55:24;100310.13;;;15.98;63.66
43071;BME280;36278;47.952;21.714;2023-05-22T04:57:49;100311.72;;;16.09;63.47
43071;BME280;36278;47.952;21.714;2023-05-22T05:00:17;100308.91;;;16.10;63.11
43071;BME280;36278;47.952;21.714;2023-05-22T05:02:42;100310.53;;;16.21;62.62
43071;BME280;36278;47.952;21.714;2023-05-22T05:05:08;100311.88;;;16.25;62.79
43071;BME280;36278;47.952;21.714;2023-05-22T05:07:37;100312.34;;;16.38;61.91
43071;BME280;36278;47.952;21.714;2023-05-22T05:10:03;100306.31;;;16.54;62.02
43071;BME280;36278;47.952;21.714;2023-05-22T05:12:29;100306.72;;;16.67;61.92
43071;BME280;36278;47.952;21.714;2023-05-22T05:14:54;100312.38;;;16.82;60.98
43071;BME280;36278;47.952;21.714;2023-05-22T05:17:20;100308.25;;;16.88;61.35
43071;BME280;36278;47.952;21.714;2023-05-22T05:19:46;100308.31;;;16.96;59.84
43071;BME280;36278;47.952;21.714;2023-05-22T05:22:11;100314.84;;;17.01;60.25
43071;BME280;36278;47.952;21.714;2023-05-22T05:24:37;100314.06;;;17.09;60.17
43071;BME280;36278;47.952;21.714;2023-05-22T05:27:02;100318.41;;;17.10;59.62
43071;BME280;36278;47.952;21.714;2023-05-22T05:29:28;100307.03;;;17.08;59.53
43071;BME280;36278;47.952;21.714;2023-05-22T05:31:54;100318.84;;;17.23;60.37
43071;BME280;36278;47.952;21.714;2023-05-22T05:34:19;100317.88;;;17.32;60.61
43071;BME280;36278;47.952;21.714;2023-05-22T05:36:45;100317.72;;;17.34;60.98
43071;BME280;36278;47.952;21.714;2023-05-22T05:39:10;100321.59;;;17.40;60.66
43071;BME280;36278;47.952;21.714;2023-05-22T05:41:36;100312.59;;;17.49;60.48
43071;BME280;36278;47.952;21.714;2023-05-22T05:44:02;100309.97;;;17.65;60.53
43071;BME280;36278;47.952;21.714;2023-05-22T05:46:27;100312.06;;;17.71;59.51
43071;BME280;36278;47.952;21.714;2023-05-22T05:48:53;100310.75;;;17.83;59.24
43071;BME280;36278;47.952;21.714;2023-05-22T05:51:18;100309.94;;;17.91;58.10
43071;BME280;36278;47.952;21.714;2023-05-22T05:53:45;100309.13;;;18.07;57.92
43071;BME280;36278;47.952;21.714;2023-05-22T05:56:10;100305.81;;;18.21;56.58
43071;BME280;36278;47.952;21.714;2023-05-22T05:58:36;100293.25;;;18.30;56.63
43071;BME280;36278;47.952;21.714;2023-05-22T06:01:01;100299.44;;;18.38;57.34
43071;BME280;36278;47.952;21.714;2023-05-22T06:03:27;100299.13;;;18.49;57.45
43071;BME280;36278;47.952;21.714;2023-05-22T06:05:53;100298.63;;;18.54;56.48
43071;BME280;36278;47.952;21.714;2023-05-22T06:08:19;100297.13;;;18.60;56.02
43071;BME280;36278;47.952;21.714;2023-05-22T06:10:46;100301.84;;;18.66;55.98
43071;BME280;36278;47.952;21.714;2023-05-22T06:13:12;100298.81;;;18.69;57.00
43071;BME280;36278;47.952;21.714;2023-05-22T06:15:38;100297.97;;;18.76;56.96
43071;BME280;36278;47.952;21.714;2023-05-22T06:18:04;100287.72;;;18.88;55.77
43071;BME280;36278;47.952;21.714;2023-05-22T06:20:30;100289.72;;;18.94;55.16
43071;BME280;36278;47.952;21.714;2023-05-22T06:22:55;100291.22;;;18.97;54.93
43071;BME280;36278;47.952;21.714;2023-05-22T06:25:21;100280.47;;;18.97;54.37
43071;BME280;36278;47.952;21.714;2023-05-22T06:27:48;100283.63;;;19.17;53.83
43071;BME280;36278;47.952;21.714;2023-05-22T06:30:13;100283.28;;;19.20;53.46
43071;BME280;36278;47.952;21.714;2023-05-22T06:32:39;100286.69;;;19.45;53.95
43071;BME280;36278;47.952;21.714;2023-05-22T06:35:05;100284.53;;;19.48;55.27
43071;BME280;36278;47.952;21.714;2023-05-22T06:37:31;100278.41;;;19.63;53.77
43071;BME280;36278;47.952;21.714;2023-05-22T06:40:00;100281.22;;;19.77;53.16
43071;BME280;36278;47.952;21.714;2023-05-22T06:42:26;100281.94;;;19.71;53.03
43071;BME280;36278;47.952;21.714;2023-05-22T06:44:53;100283.66;;;19.87;53.24
43071;BME280;36278;47.952;21.714;2023-05-22T06:47:20;100284.53;;;19.87;52.77
43071;BME280;36278;47.952;21.714;2023-05-22T06:49:48;100287.47;;;20.01;53.07
43071;BME280;36278;47.952;21.714;2023-05-22T06:52:16;100283.03;;;20.08;54.22
43071;BME280;36278;47.952;21.714;2023-05-22T06:54:44;100288.06;;;20.11;52.96
43071;BME280;36278;47.952;21.714;2023-05-22T06:57:13;100297.16;;;20.33;51.23
43071;BME280;36278;47.952;21.714;2023-05-22T06:59:41;100283.69;;;20.33;51.61
43071;BME280;36278;47.952;21.714;2023-05-22T07:02:08;100287.72;;;20.37;50.49
43071;BME280;36278;47.952;21.714;2023-05-22T07:04:34;100293.63;;;20.32;52.51
43071;BME280;36278;47.952;21.714;2023-05-22T07:07:00;100286.03;;;20.36;51.57
43071;BME280;36278;47.952;21.714;2023-05-22T07:09:26;100283.72;;;20.56;50.31
43071;BME280;36278;47.952;21.714;2023-05-22T07:11:52;100289.16;;;20.48;51.55
43071;BME280;36278;47.952;21.714;2023-05-22T07:14:18;100288.38;;;20.77;51.27
43071;BME280;36278;47.952;21.714;2023-05-22T07:16:44;100289.44;;;20.90;50.31
43071;BME280;36278;47.952;21.714;2023-05-22T07:19:09;100291.31;;;21.05;51.18
43071;BME280;36278;47.952;21.714;2023-05-22T07:21:36;100282.59;;;21.03;49.68
43071;BME280;36278;47.952;21.714;2023-05-22T07:24:02;100290.50;;;21.19;49.64
43071;BME280;36278;47.952;21.714;2023-05-22T07:26:33;100281.44;;;21.35;48.91
43071;BME280;36278;47.952;21.714;2023-05-22T07:28:59;100275.56;;;21.31;50.55
43071;BME280;36278;47.952;21.714;2023-05-22T07:31:25;100287.25;;;21.53;48.24
43071;BME280;36278;47.952;21.714;2023-05-22T07:33:51;100276.69;;;21.73;47.36
43071;BME280;36278;47.952;21.714;2023-05-22T07:36:16;100289.56;;;21.56;48.40
43071;BME280;36278;47.952;21.714;2023-05-22T07:38:43;100279.69;;;21.63;48.40
43071;BME280;36278;47.952;21.714;2023-05-22T07:41:09;100273.69;;;21.82;47.54
43071;BME280;36278;47.952;21.714;2023-05-22T07:43:35;100275.31;;;21.77;48.96
43071;BME280;36278;47.952;21.714;2023-05-22T07:46:00;100283.22;;;21.78;48.48
43071;BME280;36278;47.952;21.714;2023-05-22T07:48:26;100275.22;;;21.70;47.65
43071;BME280;36278;47.952;21.714;2023-05-22T07:50:51;100275.56;;;21.82;47.53
43071;BME280;36278;47.952;21.714;2023-05-22T07:53:17;100277.59;;;21.95;47.88
43071;BME280;36278;47.952;21.714;2023-05-22T07:55:43;100268.25;;;21.97;46.79
43071;BME280;36278;47.952;21.714;2023-05-22T07:58:09;100270.94;;;22.12;47.88
43071;BME280;36278;47.952;21.714;2023-05-22T08:00:35;100274.84;;;22.31;46.66
43071;BME280;36278;47.952;21.714;2023-05-22T08:03:02;100273.47;;;21.99;46.76
43071;BME280;36278;47.952;21.714;2023-05-22T08:05:28;100270.66;;;22.07;46.98
43071;BME280;36278;47.952;21.714;2023-05-22T08:07:54;100267.56;;;21.89;47.15
43071;BME280;36278;47.952;21.714;2023-05-22T08:10:21;100261.69;;;22.21;46.71
43071;BME280;36278;47.952;21.714;2023-05-22T08:12:47;100275.13;;;22.36;46.34
43071;BME280;36278;47.952;21.714;2023-05-22T08:15:13;100267.22;;;22.34;48.44
43071;BME280;36278;47.952;21.714;2023-05-22T08:17:38;100276.41;;;22.40;47.87
43071;BME280;36278;47.952;21.714;2023-05-22T08:20:04;100270.50;;;22.51;48.12
43071;BME280;36278;47.952;21.714;2023-05-22T08:22:31;100265.16;;;22.36;48.30
43071;BME280;36278;47.952;21.714;2023-05-22T08:24:56;100262.34;;;22.73;46.40
43071;BME280;36278;47.952;21.714;2023-05-22T08:27:22;100261.47;;;22.93;46.16
43071;BME280;36278;47.952;21.714;2023-05-22T08:29:48;100254.16;;;23.15;44.73
43071;BME280;36278;47.952;21.714;2023-05-22T08:32:14;100254.34;;;23.20;45.21
43071;BME280;36278;47.952;21.714;2023-05-22T08:34:39;100255.09;;;23.42;45.39
43071;BME280;36278;47.952;21.714;2023-05-22T08:37:06;100249.09;;;23.54;44.64
43071;BME280;36278;47.952;21.714;2023-05-22T08:39:33;100247.56;;;23.72;44.23
43071;BME280;36278;47.952;21.714;2023-05-22T08:41:59;100255.06;;;23.70;44.00
43071;BME280;36278;47.952;21.714;2023-05-22T08:44:26;100252.53;;;23.69;43.52
43071;BME280;36278;47.952;21.714;2023-05-22T08:46:53;100255.41;;;23.61;43.49
43071;BME280;36278;47.952;21.714;2023-05-22T08:49:22;100243.94;;;23.59;42.97
43071;BME280;36278;47.952;21.714;2023-05-22T08:51:53;100246.16;;;23.90;42.17
43071;BME280;36278;47.952;21.714;2023-05-22T08:54:20;100239.72;;;24.11;41.74
43071;BME280;36278;47.952;21.714;2023-05-22T08:56:50;100242.66;;;24.22;41.97
43071;BME280;36278;47.952;21.714;2023-05-22T08:59:19;100245.16;;;24.30;44.84
43071;BME280;36278;47.952;21.714;2023-05-22T09:01:46;100246.06;;;24.44;43.50
43071;BME280;36278;47.952;21.714;2023-05-22T09:04:12;100238.31;;;24.41;42.26
43071;BME280;36278;47.952;21.714;2023-05-22T09:06:39;100238.94;;;24.50;41.15
43071;BME280;36278;47.952;21.714;2023-05-22T09:09:05;100239.34;;;24.67;41.16
43071;BME280;36278;47.952;21.714;2023-05-22T09:11:31;100240.41;;;24.39;41.75
43071;BME280;36278;47.952;21.714;2023-05-22T09:14:07;100235.41;;;24.63;41.67
43071;BME280;36278;47.952;21.714;2023-05-22T09:16:43;100238.69;;;24.91;40.27
43071;BME280;36278;47.952;21.714;2023-05-22T09:19:09;100230.81;;;24.70;42.08
43071;BME280;36278;47.952;21.714;2023-05-22T09:21:35;100233.25;;;24.98;42.98
43071;BME280;36278;47.952;21.714;2023-05-22T09:24:02;100227.41;;;25.07;41.15
43071;BME280;36278;47.952;21.714;2023-05-22T09:26:29;100217.63;;;25.06;41.20
43071;BME280;36278;47.952;21.714;2023-05-22T09:28:54;100208.50;;;24.81;43.15
43071;BME280;36278;47.952;21.714;2023-05-22T09:31:21;100214.97;;;24.73;42.05
43071;BME280;36278;47.952;21.714;2023-05-22T09:33:47;100209.53;;;24.86;41.53
43071;BME280;36278;47.952;21.714;2023-05-22T09:36:12;100208.66;;;24.99;42.18
43071;BME280;36278;47.952;21.714;2023-05-22T09:38:38;100199.50;;;24.94;41.79
43071;BME280;36278;47.952;21.714;2023-05-22T09:41:04;100205.22;;;25.37;41.68
43071;BME280;36278;47.952;21.714;2023-05-22T09:43:32;100203.91;;;25.46;40.47
43071;BME280;36278;47.952;21.714;2023-05-22T09:46:01;100216.28;;;25.42;40.60
43071;BME280;36278;47.952;21.714;2023-05-22T09:48:32;100207.72;;;25.38;41.45
43071;BME280;36278;47.952;21.714;2023-05-22T09:53:15;100201.97;;;25.66;40.76
43071;BME280;36278;47.952;21.714;2023-05-22T09:55:42;100199.53;;;25.90;39.92
43071;BME280;36278;47.952;21.714;2023-05-22T09:58:12;100202.00;;;25.53;42.23
43071;BME280;36278;47.952;21.714;2023-05-22T10:00:42;100196.03;;;25.83;41.58
43071;BME280;36278;47.952;21.714;2023-05-22T10:03:09;100194.50;;;25.93;40.65
43071;BME280;36278;47.952;21.714;2023-05-22T10:05:46;100195.25;;;26.07;40.79
43071;BME280;36278;47.952;21.714;2023-05-22T10:08:23;100191.84;;;26.12;39.80
43071;BME280;36278;47.952;21.714;2023-05-22T10:10:52;100198.13;;;26.12;40.42
43071;BME280;36278;47.952;21.714;2023-05-22T10:13:18;100198.13;;;26.12;41.68
43071;BME280;36278;47.952;21.714;2023-05-22T10:15:46;100189.81;;;26.07;40.23
43071;BME280;36278;47.952;21.714;2023-05-22T10:18:14;100186.09;;;26.02;39.87
43071;BME280;36278;47.952;21.714;2023-05-22T10:20:40;100188.56;;;26.03;40.09
43071;BME280;36278;47.952;21.714;2023-05-22T10:23:06;100185.09;;;26.21;39.96
43071;BME280;36278;47.952;21.714;2023-05-22T10:25:36;100190.53;;;26.21;39.76
43071;BME280;36278;47.952;21.714;2023-05-22T10:28:02;100177.06;;;25.83;41.73
43071;BME280;36278;47.952;21.714;2023-05-22T10:33:13;100179.09;;;25.87;39.88
43071;BME280;36278;47.952;21.714;2023-05-22T10:36:00;100171.78;;;25.50;41.13
43071;BME280;36278;47.952;21.714;2023-05-22T10:38:49;100169.91;;;25.50;40.12
43071;BME280;36278;47.952;21.714;2023-05-22T10:41:17;100170.94;;;25.87;40.40
43071;BME280;36278;47.952;21.714;2023-05-22T10:43:49;100169.56;;;26.03;39.39
43071;BME280;36278;47.952;21.714;2023-05-22T10:46:16;100165.19;;;26.27;39.13
43071;BME280;36278;47.952;21.714;2023-05-22T10:48:50;100160.78;;;26.33;39.29
43071;BME280;36278;47.952;21.714;2023-05-22T10:51:23;100149.25;;;26.12;39.89
43071;BME280;36278;47.952;21.714;2023-05-22T10:54:07;100152.00;;;26.31;41.19
43071;BME280;36278;47.952;21.714;2023-05-22T10:56:34;100154.34;;;26.52;40.14
43071;BME280;36278;47.952;21.714;2023-05-22T10:59:01;100158.22;;;26.38;39.88
43071;BME280;36278;47.952;21.714;2023-05-22T11:01:29;100138.94;;;26.46;39.91
43071;BME280;36278;47.952;21.714;2023-05-22T11:06:39;100134.28;;;26.28;39.34
43071;BME280;36278;47.952;21.714;2023-05-22T11:11:45;100121.38;;;27.22;39.20
43071;BME280;36278;47.952;21.714;2023-05-22T11:14:19;100120.91;;;27.25;40.11
43071;BME280;36278;47.952;21.714;2023-05-22T11:16:47;100120.63;;;26.96;38.42
43071;BME280;36278;47.952;21.714;2023-05-22T11:19:13;100119.16;;;27.30;38.43
43071;BME280;36278;47.952;21.714;2023-05-22T11:21:44;100118.97;;;27.74;38.07
43071;BME280;36278;47.952;21.714;2023-05-22T11:24:11;100117.34;;;28.08;37.93
43071;BME280;36278;47.952;21.714;2023-05-22T11:26:40;100126.47;;;28.02;37.76
43071;BME280;36278;47.952;21.714;2023-05-22T11:29:09;100109.28;;;28.01;36.64
43071;BME280;36278;47.952;21.714;2023-05-22T11:31:35;100110.03;;;27.25;38.02
43071;BME280;36278;47.952;21.714;2023-05-22T11:34:02;100115.00;;;27.28;38.08
43071;BME280;36278;47.952;21.714;2023-05-22T11:36:28;100107.41;;;28.02;37.04
43071;BME280;36278;47.952;21.714;2023-05-22T11:38:59;100105.25;;;27.50;37.24
43071;BME280;36278;47.952;21.714;2023-05-22T11:41:30;100106.28;;;27.07;38.11
43071;BME280;36278;47.952;21.714;2023-05-22T11:43:56;100089.88;;;27.98;37.25
43071;BME280;36278;47.952;21.714;2023-05-22T11:46:21;100099.72;;;28.69;35.78
43071;BME280;36278;47.952;21.714;2023-05-22T11:48:47;100112.50;;;27.98;37.00
43071;BME280;36278;47.952;21.714;2023-05-22T11:51:13;100106.38;;;28.03;37.11
43071;BME280;36278;47.952;21.714;2023-05-22T11:53:40;100106.97;;;27.63;37.45
43071;BME280;36278;47.952;21.714;2023-05-22T11:56:06;100114.25;;;27.81;37.69
43071;BME280;36278;47.952;21.714;2023-05-22T11:58:31;100105.41;;;28.56;35.78
43071;BME280;36278;47.952;21.714;2023-05-22T12:01:01;100102.91;;;28.77;35.85
43071;BME280;36278;47.952;21.714;2023-05-22T12:03:28;100105.88;;;28.17;35.84
43071;BME280;36278;47.952;21.714;2023-05-22T12:05:55;100100.19;;;28.07;37.83
43071;BME280;36278;47.952;21.714;2023-05-22T12:08:22;100095.38;;;28.33;36.94
43071;BME280;36278;47.952;21.714;2023-05-22T12:10:51;100098.66;;;28.11;37.23
43071;BME280;36278;47.952;21.714;2023-05-22T12:13:26;100092.13;;;27.47;38.22
43071;BME280;36278;47.952;21.714;2023-05-22T12:15:58;100093.81;;;27.00;39.55
43071;BME280;36278;47.952;21.714;2023-05-22T12:18:25;100093.31;;;26.30;40.17
43071;BME280;36278;47.952;21.714;2023-05-22T12:20:51;100091.41;;;26.12;41.14
43071;BME280;36278;47.952;21.714;2023-05-22T12:23:23;100093.13;;;26.31;39.97
43071;BME280;36278;47.952;21.714;2023-05-22T12:26:02;100096.81;;;26.12;40.31
43071;BME280;36278;47.952;21.714;2023-05-22T12:28:31;100083.69;;;26.34;40.55
43071;BME280;36278;47.952;21.714;2023-05-22T12:30:57;100082.28;;;26.68;39.23
43071;BME280;36278;47.952;21.714;2023-05-22T12:33:27;100081.41;;;27.22;38.72
43071;BME280;36278;47.952;21.714;2023-05-22T12:35:53;100076.38;;;27.79;37.74
43071;BME280;36278;47.952;21.714;2023-05-22T12:38:26;100077.09;;;28.10;38.64
43071;BME280;36278;47.952;21.714;2023-05-22T12:40:53;100068.88;;;27.63;37.13
43071;BME280;36278;47.952;21.714;2023-05-22T12:43:23;100071.59;;;27.63;37.32
43071;BME280;36278;47.952;21.714;2023-05-22T12:45:51;100069.16;;;27.73;37.90
43071;BME280;36278;47.952;21.714;2023-05-22T12:48:17;100064.53;;;27.44;38.18
43071;BME280;36278;47.952;21.714;2023-05-22T12:50:44;100060.81;;;27.15;40.11
43071;BME280;36278;47.952;21.714;2023-05-22T12:53:13;100063.75;;;27.13;37.68
43071;BME280;36278;47.952;21.714;2023-05-22T12:55:39;100070.88;;;27.26;37.50
43071;BME280;36278;47.952;21.714;2023-05-22T12:58:05;100061.34;;;27.35;37.34
43071;BME280;36278;47.952;21.714;2023-05-22T13:00:31;100054.22;;;27.34;37.38
43071;BME280;36278;47.952;21.714;2023-05-22T13:02:57;100064.53;;;27.44;37.95
43071;BME280;36278;47.952;21.714;2023-05-22T13:05:23;100053.16;;;27.35;37.31
43071;BME280;36278;47.952;21.714;2023-05-22T13:07:48;100050.34;;;27.30;38.71
43071;BME280;36278;47.952;21.714;2023-05-22T13:10:14;100061.13;;;26.70;40.27